createdAt,value
2019-02-27T00:00:39.100Z,35.90
2019-02-27T00:03:06.140Z,35.90
2019-02-27T00:05:32.182Z,35.80
2019-02-27T00:07:58.161Z,36.00
2019-02-27T00:10:24.116Z,35.90
2019-02-27T00:12:52.001Z,35.90
2019-02-27T00:15:17.897Z,35.90
2019-02-27T00:17:43.827Z,35.90
2019-02-27T00:20:09.778Z,35.90
2019-02-27T00:22:35.752Z,35.90
2019-02-27T00:25:03.453Z,35.90
2019-02-27T00:27:29.576Z,35.90
2019-02-27T00:29:55.546Z,36.00
2019-02-27T00:32:21.516Z,35.90
2019-02-27T00:34:47.513Z,35.30
2019-02-27T00:37:13.473Z,35.80
2019-02-27T00:39:39.408Z,35.90
2019-02-27T00:42:05.366Z,35.90
2019-02-27T00:44:33.989Z,35.90
2019-02-27T00:46:59.288Z,35.90
2019-02-27T00:49:25.248Z,35.90
2019-02-27T00:51:51.192Z,35.90
2019-02-27T00:54:17.155Z,35.80
2019-02-27T00:56:45.058Z,35.80
2019-02-27T00:59:11.065Z,35.80
2019-02-27T01:01:37.024Z,35.80
2019-02-27T01:04:02.988Z,35.80
2019-02-27T01:06:28.912Z,35.80
2019-02-27T01:08:54.894Z,35.80
2019-02-27T01:11:20.858Z,35.80
2019-02-27T01:13:46.794Z,35.70
2019-02-27T01:16:16.987Z,35.80
2019-02-27T01:18:40.635Z,35.80
2019-02-27T01:21:06.617Z,35.80
2019-02-27T01:23:32.580Z,35.70
2019-02-27T01:25:58.588Z,35.70
2019-02-27T01:28:24.556Z,35.70
2019-02-27T01:30:50.597Z,35.80
2019-02-27T01:33:16.556Z,35.70
2019-02-27T01:35:42.488Z,35.70
2019-02-27T01:38:08.508Z,35.70
2019-02-27T01:40:34.488Z,35.70
2019-02-27T01:43:05.488Z,35.70
2019-02-27T01:45:28.392Z,35.70
2019-02-27T01:47:54.353Z,35.80
2019-02-27T01:50:22.708Z,35.70
2019-02-27T01:52:48.194Z,35.70
2019-02-27T01:55:14.151Z,35.70
2019-02-27T01:57:40.101Z,35.70
2019-02-27T02:00:06.368Z,35.70
2019-02-27T02:02:34.937Z,35.70
2019-02-27T02:05:00.852Z,35.70
2019-02-27T02:07:26.867Z,35.70
2019-02-27T02:09:55.085Z,35.60
2019-02-27T02:12:22.103Z,35.70
2019-02-27T02:14:48.075Z,35.70
2019-02-27T02:17:14.031Z,35.60
2019-02-27T02:19:40.004Z,35.70
2019-02-27T02:22:06.130Z,35.70
2019-02-27T02:24:33.807Z,35.70
2019-02-27T02:26:59.792Z,35.60
2019-02-27T02:29:25.861Z,35.60
2019-02-27T02:31:51.809Z,35.60
2019-02-27T02:34:17.753Z,35.60
2019-02-27T02:36:43.723Z,35.60
2019-02-27T02:39:09.681Z,35.60
2019-02-27T02:41:35.673Z,35.60
2019-02-27T02:44:01.634Z,35.60
2019-02-27T02:46:27.670Z,35.60
2019-02-27T02:48:53.633Z,35.60
2019-02-27T02:51:19.583Z,35.60
2019-02-27T02:53:48.454Z,35.60
2019-02-27T02:56:13.456Z,35.60
2019-02-27T02:58:39.403Z,35.60
2019-02-27T03:01:05.364Z,35.60
2019-02-27T03:03:35.804Z,35.60
2019-02-27T03:06:00.056Z,35.50
2019-02-27T03:08:26.260Z,35.50
2019-02-27T03:10:52.237Z,35.60
2019-02-27T03:13:18.377Z,35.50
2019-02-27T03:15:44.329Z,35.60
2019-02-27T03:18:10.363Z,35.60
2019-02-27T03:20:36.294Z,35.60
2019-02-27T03:23:02.237Z,35.60
2019-02-27T03:25:28.179Z,35.60
2019-02-27T03:27:54.173Z,35.70
2019-02-27T03:30:20.182Z,35.60
2019-02-27T03:32:46.114Z,35.60
2019-02-27T03:35:12.048Z,35.70
2019-02-27T03:37:38.027Z,35.60
2019-02-27T03:40:03.988Z,36.10
2019-02-27T03:42:30.897Z,35.50
2019-02-27T03:45:00.609Z,35.60
2019-02-27T03:47:26.596Z,35.50
2019-02-27T03:49:52.533Z,35.50
2019-02-27T03:52:36.481Z,35.50
2019-02-27T03:55:03.296Z,35.50
2019-02-27T03:57:29.351Z,35.60
2019-02-27T03:59:55.294Z,36.20
2019-02-27T04:02:21.704Z,35.60
2019-02-27T04:04:47.666Z,35.50
2019-02-27T04:07:13.705Z,35.50
2019-02-27T04:09:39.665Z,35.60
2019-02-27T04:12:05.595Z,35.50
2019-02-27T04:14:31.544Z,35.60
2019-02-27T04:16:57.483Z,35.60
2019-02-27T04:19:23.419Z,35.50
2019-02-27T04:21:49.378Z,35.60
2019-02-27T04:24:15.327Z,35.60
2019-02-27T04:26:41.875Z,35.70
2019-02-27T04:29:08.696Z,35.60
2019-02-27T04:31:34.815Z,35.70
2019-02-27T04:34:01.310Z,35.60
2019-02-27T04:36:27.423Z,36.20
2019-02-27T04:38:53.378Z,35.70
2019-02-27T04:41:19.336Z,35.70
2019-02-27T04:43:45.318Z,35.70
2019-02-27T04:46:11.266Z,35.70
2019-02-27T04:48:37.232Z,36.10
2019-02-27T04:51:03.192Z,36.20
2019-02-27T04:53:31.985Z,36.20
2019-02-27T04:55:56.999Z,36.20
2019-02-27T04:58:23.068Z,36.40
2019-02-27T05:00:49.001Z,36.50
2019-02-27T05:03:14.945Z,36.30
2019-02-27T05:05:41.432Z,36.20
2019-02-27T05:08:08.064Z,36.20
2019-02-27T05:10:34.008Z,36.20
2019-02-27T05:13:00.009Z,36.30
2019-02-27T05:15:25.954Z,36.30
2019-02-27T05:17:53.023Z,36.30
2019-02-27T05:20:19.744Z,36.60
2019-02-27T05:22:45.724Z,36.40
2019-02-27T05:25:12.043Z,36.50
2019-02-27T05:27:39.638Z,36.50
2019-02-27T05:30:05.582Z,36.60
2019-02-27T05:32:32.318Z,36.50
2019-02-27T05:34:58.251Z,36.50
2019-02-27T05:37:24.176Z,36.50
2019-02-27T05:39:51.232Z,36.40
2019-02-27T05:42:17.903Z,36.40
2019-02-27T05:44:43.849Z,36.40
2019-02-27T05:47:11.078Z,36.40
2019-02-27T05:49:37.648Z,36.40
2019-02-27T05:52:03.609Z,36.40
2019-02-27T05:54:30.037Z,36.50
2019-02-27T05:56:57.416Z,36.60
2019-02-27T05:59:23.399Z,36.60
2019-02-27T06:01:49.335Z,36.80
2019-02-27T06:04:15.301Z,36.70
2019-02-27T06:06:44.992Z,36.70
2019-02-27T06:09:10.362Z,36.80
2019-02-27T06:11:36.939Z,36.70
2019-02-27T06:14:02.889Z,36.60
2019-02-27T06:16:28.859Z,36.60
2019-02-27T06:18:56.259Z,36.50
2019-02-27T06:21:22.658Z,36.60
2019-02-27T06:23:48.615Z,36.60
2019-02-27T06:26:14.549Z,36.60
2019-02-27T06:28:41.847Z,36.60
2019-02-27T06:31:07.941Z,36.60
2019-02-27T06:33:33.878Z,36.90
2019-02-27T06:35:59.817Z,36.90
2019-02-27T06:38:25.967Z,37.00
2019-02-27T06:40:52.298Z,37.00
2019-02-27T06:43:18.531Z,36.80
2019-02-27T06:45:46.433Z,36.80
2019-02-27T06:48:12.317Z,36.70
2019-02-27T06:50:38.287Z,37.30
2019-02-27T06:53:04.255Z,36.20
2019-02-27T06:55:30.196Z,36.60
2019-02-27T06:57:56.151Z,36.60
2019-02-27T07:00:22.115Z,36.60
2019-02-27T07:02:48.076Z,36.60
2019-02-27T07:05:14.165Z,36.50
2019-02-27T07:07:40.273Z,36.40
2019-02-27T07:10:06.217Z,36.50
2019-02-27T07:12:32.177Z,36.60
2019-02-27T07:14:58.129Z,36.50
2019-02-27T07:17:24.097Z,36.40
2019-02-27T07:19:50.428Z,36.40
2019-02-27T07:22:16.558Z,36.30
2019-02-27T07:24:42.601Z,36.30
2019-02-27T07:27:08.665Z,36.20
2019-02-27T07:29:34.627Z,36.10
2019-02-27T07:32:00.671Z,36.00
2019-02-27T07:34:26.645Z,35.80
2019-02-27T07:36:52.602Z,35.60
2019-02-27T07:39:18.563Z,35.40
2019-02-27T07:41:44.516Z,35.30
2019-02-27T07:44:10.486Z,35.10
2019-02-27T07:46:36.431Z,34.90
2019-02-27T07:49:02.403Z,34.70
2019-02-27T07:51:28.365Z,34.60
2019-02-27T07:53:54.558Z,34.50
2019-02-27T07:56:20.660Z,34.00
2019-02-27T07:58:46.606Z,33.90
2019-02-27T08:01:12.534Z,33.80
2019-02-27T08:03:38.488Z,33.70
2019-02-27T08:06:04.440Z,33.60
2019-02-27T08:08:30.385Z,33.50
2019-02-27T08:10:56.359Z,33.50
2019-02-27T08:13:22.300Z,33.40
2019-02-27T08:15:48.395Z,33.50
2019-02-27T08:18:15.207Z,33.40
2019-02-27T08:20:41.150Z,34.00
2019-02-27T08:23:07.104Z,33.30
2019-02-27T08:25:33.041Z,33.30
2019-02-27T08:27:59.002Z,33.20
2019-02-27T08:30:24.984Z,33.30
2019-02-27T08:32:51.039Z,33.30
2019-02-27T08:35:16.984Z,33.30
2019-02-27T08:37:42.934Z,33.30
2019-02-27T08:40:08.880Z,33.20
2019-02-27T08:42:37.267Z,33.20
2019-02-27T08:45:02.688Z,33.30
2019-02-27T08:47:28.664Z,33.30
2019-02-27T08:49:57.645Z,33.20
2019-02-27T08:52:22.460Z,33.30
2019-02-27T08:54:48.434Z,33.40
2019-02-27T08:57:14.374Z,33.40
2019-02-27T08:59:40.779Z,33.60
2019-02-27T09:02:06.960Z,33.70
2019-02-27T09:04:32.964Z,33.80
2019-02-27T09:07:02.202Z,33.90
2019-02-27T09:09:26.889Z,33.80
2019-02-27T09:11:52.831Z,34.00
2019-02-27T09:14:18.796Z,34.00
2019-02-27T09:16:44.867Z,34.00
2019-02-27T09:21:36.783Z,34.00
2019-02-27T09:24:02.746Z,34.00
2019-02-27T09:26:28.708Z,34.00
2019-02-27T09:28:54.746Z,34.00
2019-02-27T09:31:20.700Z,34.10
2019-02-27T09:33:46.670Z,34.10
2019-02-27T09:36:12.734Z,34.00
2019-02-27T09:38:38.682Z,34.00
2019-02-27T09:41:04.652Z,34.10
2019-02-27T09:43:32.211Z,34.00
2019-02-27T09:45:58.543Z,33.90
2019-02-27T09:48:24.490Z,33.90
2019-02-27T09:50:50.463Z,33.90
2019-02-27T09:53:16.419Z,33.90
2019-02-27T09:55:42.419Z,33.90
2019-02-27T09:58:11.138Z,33.90
2019-02-27T10:00:36.237Z,33.90
2019-02-27T10:03:02.189Z,33.90
2019-02-27T10:05:28.145Z,33.90
2019-02-27T10:07:54.087Z,33.90
2019-02-27T10:10:20.044Z,34.00
2019-02-27T10:12:47.060Z,33.90
2019-02-27T10:15:13.002Z,33.90
2019-02-27T10:17:41.134Z,33.90
2019-02-27T10:20:06.818Z,33.80
2019-02-27T10:22:32.860Z,33.90
2019-02-27T10:24:58.804Z,33.90
2019-02-27T10:27:25.460Z,33.90
2019-02-27T10:29:52.647Z,33.90
2019-02-27T10:32:19.292Z,34.00
2019-02-27T10:34:45.227Z,34.00
2019-02-27T10:37:13.301Z,34.00
2019-02-27T10:39:39.056Z,34.10
2019-02-27T10:42:05.141Z,34.00
2019-02-27T10:44:33.801Z,34.10
2019-02-27T10:46:59.898Z,34.10
2019-02-27T10:49:26.720Z,34.10
2019-02-27T10:51:52.769Z,34.80
2019-02-27T10:54:18.734Z,34.10
2019-02-27T10:56:44.776Z,34.20
2019-02-27T10:59:10.762Z,34.20
2019-02-27T11:01:37.071Z,34.10
2019-02-27T11:04:03.794Z,34.20
2019-02-27T11:06:33.941Z,34.20
2019-02-27T11:08:57.775Z,34.30
2019-02-27T11:11:23.727Z,34.30
2019-02-27T11:13:52.134Z,34.20
2019-02-27T11:16:20.819Z,34.20
2019-02-27T11:18:45.388Z,34.20
2019-02-27T11:21:11.391Z,34.20
2019-02-27T11:23:40.857Z,34.20
2019-02-27T11:26:05.206Z,34.30
2019-02-27T11:28:31.172Z,34.30
2019-02-27T11:30:57.561Z,34.40
2019-02-27T11:33:25.950Z,34.40
2019-02-27T11:35:51.353Z,34.50
2019-02-27T11:38:17.290Z,35.10
2019-02-27T11:40:43.232Z,34.40
2019-02-27T11:43:09.213Z,35.50
2019-02-27T11:45:35.148Z,34.60
2019-02-27T11:48:01.120Z,34.40
2019-02-27T11:50:27.045Z,34.40
2019-02-27T11:52:53.025Z,34.50
2019-02-27T11:55:18.979Z,34.60
2019-02-27T11:57:44.963Z,34.70
2019-02-27T12:00:13.611Z,34.80
2019-02-27T12:02:43.534Z,34.80
2019-02-27T12:05:09.494Z,34.80
2019-02-27T12:07:35.466Z,34.80
2019-02-27T12:10:01.506Z,34.80
2019-02-27T12:12:27.494Z,34.80
2019-02-27T12:14:53.542Z,34.90
2019-02-27T12:17:19.506Z,34.90
2019-02-27T12:19:45.488Z,34.80
2019-02-27T12:22:11.512Z,34.90
2019-02-27T12:24:37.470Z,34.90
2019-02-27T12:27:03.437Z,35.00
2019-02-27T12:29:29.416Z,34.90
2019-02-27T12:31:55.381Z,34.90
2019-02-27T12:34:21.346Z,35.10
2019-02-27T12:36:49.920Z,35.10
2019-02-27T12:39:16.070Z,35.10
2019-02-27T12:41:42.126Z,35.20
2019-02-27T12:44:08.056Z,35.20
2019-02-27T12:46:34.710Z,35.20
2019-02-27T12:49:00.869Z,35.20
2019-02-27T12:51:26.852Z,35.10
2019-02-27T12:53:54.627Z,35.20
2019-02-27T12:56:20.637Z,35.20
2019-02-27T12:58:46.576Z,35.20
2019-02-27T13:01:16.116Z,35.20
2019-02-27T13:03:42.463Z,35.80
2019-02-27T13:06:08.254Z,35.70
2019-02-27T13:08:34.186Z,34.60
2019-02-27T13:11:00.139Z,35.00
2019-02-27T13:13:26.510Z,34.80
2019-02-27T13:15:52.646Z,34.80
2019-02-27T13:18:18.713Z,34.90
2019-02-27T13:20:45.708Z,34.80
2019-02-27T13:23:12.309Z,34.80
2019-02-27T13:25:38.281Z,34.70
2019-02-27T13:28:04.340Z,34.70
2019-02-27T13:30:30.412Z,34.70
2019-02-27T13:33:00.783Z,34.70
2019-02-27T13:35:24.200Z,34.70
2019-02-27T13:37:50.141Z,34.80
2019-02-27T13:40:16.089Z,34.80
2019-02-27T13:42:42.106Z,34.80
2019-02-27T13:45:12.624Z,34.80
2019-02-27T13:47:35.897Z,34.90
2019-02-27T13:50:01.915Z,34.90
2019-02-27T13:52:27.899Z,34.80
2019-02-27T13:54:53.856Z,34.80
2019-02-27T13:57:24.846Z,34.90
2019-02-27T13:59:47.668Z,34.90
2019-02-27T14:02:13.695Z,35.00
2019-02-27T14:04:39.745Z,34.90
2019-02-27T14:07:05.839Z,34.90
2019-02-27T14:09:31.787Z,34.90
2019-02-27T14:11:58.851Z,35.00
2019-02-27T14:14:25.519Z,35.00
2019-02-27T14:16:51.476Z,35.00
2019-02-27T14:19:17.446Z,35.10
2019-02-27T14:21:43.387Z,35.20
2019-02-27T14:24:09.359Z,35.20
2019-02-27T14:26:35.389Z,35.20
2019-02-27T14:29:01.366Z,35.40
2019-02-27T14:31:27.422Z,35.20
2019-02-27T14:33:54.232Z,35.20
2019-02-27T14:36:21.045Z,35.30
2019-02-27T14:38:47.128Z,35.30
2019-02-27T14:41:14.507Z,35.30
2019-02-27T14:43:40.899Z,35.30
2019-02-27T14:46:06.877Z,35.30
2019-02-27T14:48:32.937Z,35.30
2019-02-27T14:50:58.871Z,35.30
2019-02-27T14:53:24.800Z,35.40
2019-02-27T14:55:50.745Z,35.30
2019-02-27T14:58:16.705Z,35.40
2019-02-27T15:00:42.676Z,35.30
2019-02-27T15:03:08.717Z,35.40
2019-02-27T15:05:36.601Z,35.40
2019-02-27T15:08:02.539Z,35.40
2019-02-27T15:10:28.473Z,35.30
2019-02-27T15:12:55.619Z,35.20
2019-02-27T15:15:21.767Z,35.30
2019-02-27T15:17:47.729Z,35.40
2019-02-27T15:20:13.694Z,35.30
2019-02-27T15:22:39.845Z,35.30
2019-02-27T15:25:08.139Z,35.20
2019-02-27T15:27:35.619Z,35.30
2019-02-27T15:30:01.897Z,35.20
2019-02-27T15:32:29.445Z,35.30
2019-02-27T15:34:55.815Z,35.20
2019-02-27T15:37:21.778Z,35.20
2019-02-27T15:39:47.737Z,35.20
2019-02-27T15:42:13.801Z,35.30
2019-02-27T15:44:40.112Z,35.20
2019-02-27T15:47:07.251Z,35.40
2019-02-27T15:49:33.293Z,35.20
2019-02-27T15:51:59.237Z,35.30
2019-02-27T15:54:25.213Z,35.30
2019-02-27T15:56:51.187Z,35.30
2019-02-27T15:59:17.147Z,35.30
2019-02-27T16:01:43.103Z,35.20
2019-02-27T16:04:09.103Z,35.30
2019-02-27T16:06:37.058Z,35.20
2019-02-27T16:09:02.995Z,35.30
2019-02-27T16:11:28.965Z,35.30
2019-02-27T16:13:54.919Z,34.80
2019-02-27T16:16:23.317Z,35.10
2019-02-27T16:18:49.442Z,35.00
2019-02-27T16:21:15.620Z,35.00
2019-02-27T16:23:41.584Z,34.90
2019-02-27T16:26:07.542Z,34.80
2019-02-27T16:28:33.491Z,34.80
2019-02-27T16:30:59.469Z,34.80
2019-02-27T16:33:25.422Z,34.90
2019-02-27T16:35:51.410Z,34.80
2019-02-27T16:38:17.460Z,34.80
2019-02-27T16:40:43.521Z,34.80
2019-02-27T16:43:10.273Z,34.70
2019-02-27T16:45:37.681Z,34.70
2019-02-27T16:48:03.787Z,34.80
2019-02-27T16:50:29.711Z,34.80
2019-02-27T16:52:55.674Z,34.80
2019-02-27T16:55:21.631Z,34.80
2019-02-27T16:57:47.645Z,34.80
2019-02-27T17:00:18.256Z,34.80
2019-02-27T17:02:41.513Z,34.80
2019-02-27T17:05:08.806Z,34.80
2019-02-27T17:07:35.343Z,34.80
2019-02-27T17:10:01.294Z,34.80
2019-02-27T17:12:27.301Z,34.80
2019-02-27T17:14:55.384Z,34.80
2019-02-27T17:17:21.192Z,34.80
2019-02-27T17:19:47.225Z,34.80
2019-02-27T17:22:13.174Z,34.90
2019-02-27T17:24:39.159Z,35.10
2019-02-27T17:27:05.119Z,35.20
2019-02-27T17:29:31.238Z,35.30
2019-02-27T17:31:57.230Z,35.20
2019-02-27T17:34:23.191Z,35.20
2019-02-27T17:36:49.262Z,35.30
2019-02-27T17:39:15.314Z,35.60
2019-02-27T17:41:41.929Z,35.80
2019-02-27T17:44:09.236Z,35.90
2019-02-27T17:46:35.212Z,35.90
2019-02-27T17:49:01.248Z,35.90
2019-02-27T17:51:27.420Z,36.00
2019-02-27T17:53:55.110Z,36.00
2019-02-27T17:56:21.273Z,36.00
2019-02-27T17:58:47.249Z,36.00
2019-02-27T18:01:15.108Z,36.00
2019-02-27T18:03:41.899Z,36.00
2019-02-27T18:06:07.927Z,36.00
2019-02-27T18:08:33.933Z,36.00
2019-02-27T18:10:59.987Z,36.10
2019-02-27T18:13:26.061Z,36.10
2019-02-27T18:15:53.228Z,36.10
2019-02-27T18:18:19.908Z,36.10
2019-02-27T18:20:45.973Z,36.00
2019-02-27T18:23:12.122Z,35.90
2019-02-27T18:25:41.144Z,36.00
2019-02-27T18:28:06.005Z,35.80
2019-02-27T18:30:31.964Z,35.50
2019-02-27T18:32:57.903Z,35.50
2019-02-27T18:35:28.476Z,35.40
2019-02-27T18:37:54.385Z,35.30
2019-02-27T18:40:19.556Z,35.30
2019-02-27T18:42:46.160Z,35.20
2019-02-27T18:45:14.968Z,35.20
2019-02-27T18:47:39.980Z,35.20
2019-02-27T18:50:05.997Z,35.20
2019-02-27T18:52:32.491Z,35.10
2019-02-27T18:54:58.549Z,35.10
2019-02-27T18:57:24.484Z,35.00
2019-02-27T18:59:50.445Z,35.10
2019-02-27T19:02:19.530Z,35.00
2019-02-27T19:04:44.387Z,34.90
2019-02-27T19:07:10.419Z,34.90
2019-02-27T19:09:36.382Z,35.10
2019-02-27T19:12:02.326Z,35.00
2019-02-27T19:14:28.300Z,35.10
2019-02-27T19:16:55.051Z,35.10
2019-02-27T19:19:22.031Z,35.10
2019-02-27T19:21:47.986Z,35.10
2019-02-27T19:24:13.940Z,35.20
2019-02-27T19:26:41.725Z,35.20
2019-02-27T19:29:08.182Z,35.20
2019-02-27T19:31:34.133Z,35.20
2019-02-27T19:34:00.106Z,35.30
2019-02-27T19:36:30.496Z,35.10
2019-02-27T19:38:54.175Z,34.80
2019-02-27T19:41:20.133Z,34.60
2019-02-27T19:43:46.139Z,34.60
2019-02-27T19:46:12.204Z,34.80
2019-02-27T19:48:38.174Z,34.90
2019-02-27T19:51:04.216Z,35.00
2019-02-27T19:53:30.180Z,35.10
2019-02-27T19:56:01.590Z,35.10
2019-02-27T19:58:26.471Z,35.10
2019-02-27T20:00:52.426Z,35.80
2019-02-27T20:03:18.378Z,35.40
2019-02-27T20:05:44.302Z,35.60
2019-02-27T20:08:11.122Z,35.60
2019-02-27T20:10:37.244Z,35.60
2019-02-27T20:13:03.287Z,35.60
2019-02-27T20:15:29.253Z,35.60
2019-02-27T20:17:55.193Z,35.60
2019-02-27T20:20:21.144Z,35.60
2019-02-27T20:22:47.108Z,35.60
2019-02-27T20:25:13.063Z,35.60
2019-02-27T20:27:39.028Z,35.60
2019-02-27T20:30:05.022Z,35.60
2019-02-27T20:32:31.207Z,35.60
2019-02-27T20:34:57.179Z,35.60
2019-02-27T20:37:23.126Z,35.70
2019-02-27T20:39:49.093Z,35.70
2019-02-27T20:42:15.786Z,35.70
2019-02-27T20:44:41.862Z,35.80
2019-02-27T20:47:07.960Z,35.90
2019-02-27T20:49:33.983Z,36.60
2019-02-27T20:51:59.981Z,36.00
2019-02-27T20:54:25.915Z,36.20
2019-02-27T20:56:55.522Z,36.00
2019-02-27T20:59:24.757Z,35.90
2019-02-27T21:01:48.014Z,35.90
2019-02-27T21:04:14.173Z,35.80
2019-02-27T21:06:40.147Z,35.80
2019-02-27T21:09:10.877Z,35.80
2019-02-27T21:11:35.593Z,35.80
2019-02-27T21:14:02.583Z,35.90
2019-02-27T21:16:28.715Z,35.90
2019-02-27T21:18:54.676Z,36.00
2019-02-27T21:21:20.758Z,36.00
2019-02-27T21:23:46.873Z,36.00
2019-02-27T21:26:12.923Z,36.10
2019-02-27T21:28:38.894Z,36.20
2019-02-27T21:31:04.944Z,36.20
2019-02-27T21:33:30.886Z,36.20
2019-02-27T21:35:56.927Z,36.20
2019-02-27T21:38:22.865Z,36.20
2019-02-27T21:40:48.816Z,36.20
2019-02-27T21:43:14.799Z,36.20
2019-02-27T21:45:40.826Z,36.20
2019-02-27T21:48:06.776Z,36.20
2019-02-27T21:50:32.765Z,36.20
2019-02-27T21:52:58.796Z,36.10
2019-02-27T21:55:24.780Z,36.10
2019-02-27T21:57:50.763Z,36.10
2019-02-27T22:00:18.309Z,36.10
2019-02-27T22:02:44.276Z,36.20
2019-02-27T22:05:10.226Z,36.20
2019-02-27T22:07:36.160Z,36.10
2019-02-27T22:10:02.092Z,36.10
2019-02-27T22:12:28.158Z,36.10
2019-02-27T22:14:54.100Z,36.10
2019-02-27T22:17:20.072Z,36.10
2019-02-27T22:19:46.022Z,36.20
2019-02-27T22:22:12.610Z,36.10
2019-02-27T22:24:38.650Z,36.10
2019-02-27T22:27:04.662Z,36.10
2019-02-27T22:29:30.715Z,36.00
2019-02-27T22:31:56.667Z,36.00
2019-02-27T22:34:22.636Z,36.00
2019-02-27T22:36:48.574Z,36.00
2019-02-27T22:39:14.528Z,36.00
2019-02-27T22:41:41.523Z,36.10
2019-02-27T22:44:07.742Z,36.00
2019-02-27T22:46:33.686Z,36.20
2019-02-27T22:49:01.017Z,36.10
2019-02-27T22:51:27.187Z,36.10
2019-02-27T22:53:53.289Z,36.20
2019-02-27T22:56:19.323Z,36.20
2019-02-27T22:58:45.267Z,36.10
2019-02-27T23:01:14.955Z,36.20
2019-02-27T23:03:39.947Z,36.20
2019-02-27T23:06:06.000Z,36.10
2019-02-27T23:08:32.032Z,36.10
2019-02-27T23:10:57.975Z,36.10
2019-02-27T23:13:23.909Z,36.20
2019-02-27T23:15:49.874Z,36.10
2019-02-27T23:18:15.828Z,36.10
2019-02-27T23:20:41.796Z,36.10
2019-02-27T23:23:07.754Z,36.20
2019-02-27T23:25:33.717Z,36.20
2019-02-27T23:28:00.950Z,36.20
2019-02-27T23:30:27.558Z,36.20
2019-02-27T23:32:53.622Z,36.20
2019-02-27T23:35:19.643Z,36.20
2019-02-27T23:37:45.592Z,36.20
2019-02-27T23:40:16.915Z,36.30
2019-02-27T23:42:39.532Z,36.30
2019-02-27T23:45:05.619Z,36.20
2019-02-27T23:47:31.637Z,36.20
2019-02-27T23:49:57.612Z,36.20
2019-02-27T23:52:24.543Z,36.20
2019-02-27T23:54:50.482Z,36.50
2019-02-27T23:57:16.467Z,36.20
2019-02-27T23:59:42.390Z,36.20
